Time;durP1;ratioP1;P1;durP2;ratioP2;P2;SDS_P1;SDS_P2;PMS_P1;PMS_P2;Temp;Humidity;BMP_temperature;BMP_pressure;BME280_temperature;BME280_humidity;BME280_pressure;Samples;Min_cycle;Max_cycle;Signal;HPM_P1;HPM_P2
2023/02/07 00:02:34;;;;;;;27.00;13.40;;;;;;;-9.16;88.66;98843.67;109045;1270;24013;-80
2023/02/07 00:05:06;;;;;;;32.80;15.50;;;;;;;-9.15;88.65;98842.23;108832;1267;161055;-80
2023/02/07 00:07:37;;;;;;;28.40;15.30;;;;;;;-9.16;88.59;98843.67;109063;1274;22567;-80
2023/02/07 00:10:12;;;;;;;25.90;13.40;;;;;;;-9.19;88.31;98842.51;109060;1274;24225;-80
2023/02/07 00:12:43;;;;;;;18.90;10.30;;;;;;;-9.23;88.05;98847.06;109012;1275;22538;-80
2023/02/07 00:15:14;;;;;;;23.70;11.50;;;;;;;-9.25;88.14;98835.38;109034;1270;30206;-80
2023/02/07 00:17:47;;;;;;;20.60;11.80;;;;;;;-9.27;88.02;98833.81;109065;1273;24189;-80
2023/02/07 00:20:18;;;;;;;25.60;14.10;;;;;;;-9.21;88.22;98839.22;109078;1274;22521;-80
2023/02/07 00:22:49;;;;;;;26.40;13.80;;;;;;;-9.20;87.82;98841.17;109069;1274;22524;-80
2023/02/07 00:25:21;;;;;;;17.30;10.20;;;;;;;-9.19;87.86;98845.09;109011;1268;45652;-80
2023/02/07 00:27:55;;;;;;;17.30;8.60;;;;;;;-9.19;87.75;98845.42;109060;1269;22527;-80
2023/02/07 00:30:29;;;;;;;21.30;10.30;;;;;;;-9.19;87.84;98848.02;109043;1275;22545;-80
2023/02/07 00:33:00;;;;;;;28.00;14.90;;;;;;;-9.24;87.59;98846.77;109031;1268;23980;-80
2023/02/07 00:35:31;;;;;;;16.70;9.40;;;;;;;-9.27;87.50;98842.01;109053;1274;55920;-81
2023/02/07 00:38:02;;;;;;;28.60;13.20;;;;;;;-9.24;87.91;98831.37;109023;1271;22554;-80
2023/02/07 00:40:33;;;;;;;24.50;13.40;;;;;;;-9.20;87.63;98833.67;109047;1274;22550;-80
2023/02/07 00:43:07;;;;;;;23.80;13.20;;;;;;;-9.16;87.77;98820.55;109075;1275;22558;-80
2023/02/07 00:45:38;;;;;;;25.10;13.20;;;;;;;-9.15;88.00;98800.46;108994;1275;39652;-81
2023/02/07 00:48:09;;;;;;;24.60;12.60;;;;;;;-9.16;87.61;98790.73;109037;1273;23992;-80
2023/02/07 00:50:42;;;;;;;22.30;10.90;;;;;;;-9.12;87.86;98802.00;109014;1253;22544;-81
2023/02/07 00:53:14;;;;;;;19.50;10.10;;;;;;;-9.11;87.80;98793.02;109078;1274;25337;-80
2023/02/07 00:55:49;;;;;;;24.90;11.50;;;;;;;-9.12;87.84;98794.96;109027;1274;50156;-81
2023/02/07 00:58:25;;;;;;;21.80;12.10;;;;;;;-9.13;87.75;98802.55;109034;1274;22821;-80
2023/02/07 01:00:56;;;;;;;24.90;12.70;;;;;;;-9.12;87.83;98793.59;109029;1272;22556;-80
2023/02/07 01:03:28;;;;;;;24.20;12.50;;;;;;;-9.11;87.77;98783.73;109073;1262;22565;-81
2023/02/07 01:05:59;;;;;;;15.80;9.70;;;;;;;-9.11;87.67;98776.75;107674;1268;1792858;-81
2023/02/07 01:08:37;;;;;;;23.50;13.20;;;;;;;-9.16;87.63;98780.48;109000;1275;22525;-80
2023/02/07 01:11:15;;;;;;;12.80;6.60;;;;;;;-9.21;87.45;98784.42;109020;1272;22528;-81
2023/02/07 01:13:46;;;;;;;23.30;12.40;;;;;;;-9.23;87.61;98779.77;109044;1267;23743;-80
2023/02/07 01:16:31;;;;;;;21.20;13.00;;;;;;;-9.18;87.91;98789.73;109092;1275;24904;-81
2023/02/07 01:19:08;;;;;;;25.80;10.60;;;;;;;-9.09;87.93;98790.27;109052;1274;22541;-81
2023/02/07 01:21:39;;;;;;;26.10;12.10;;;;;;;-9.08;87.60;98779.63;109040;1267;22548;-81
2023/02/07 01:24:12;;;;;;;20.80;9.40;;;;;;;-9.08;87.72;98778.77;109000;1254;98263;-81
2023/02/07 01:26:43;;;;;;;17.90;9.80;;;;;;;-9.06;87.61;98783.10;109072;1253;22725;-80
2023/02/07 01:29:15;;;;;;;22.00;10.10;;;;;;;-8.98;88.04;98784.27;109028;1275;25025;-80
2023/02/07 01:31:47;;;;;;;19.60;8.40;;;;;;;-8.86;88.08;98786.58;109051;1274;22486;-81
2023/02/07 01:34:20;;;;;;;25.90;12.00;;;;;;;-8.85;87.65;98781.48;109053;1259;47126;-81
2023/02/07 01:36:55;;;;;;;24.50;12.50;;;;;;;-8.89;87.47;98771.17;109076;1269;23788;-81
2023/02/07 01:39:26;;;;;;;21.80;10.80;;;;;;;-8.98;87.12;98771.39;109036;1274;22527;-81
2023/02/07 01:41:57;;;;;;;21.80;11.80;;;;;;;-9.00;86.86;98767.23;109043;1272;22534;-81
2023/02/07 01:45:00;;;;;;;19.70;10.60;;;;;;;-8.97;87.53;98761.23;108991;1251;46531;-81
2023/02/07 01:47:35;;;;;;;16.30;8.40;;;;;;;-8.96;87.42;98749.20;108993;1275;25303;-81
2023/02/07 01:50:08;;;;;;;22.20;11.70;;;;;;;-8.99;87.45;98748.17;109034;1267;22559;-81
2023/02/07 01:52:41;;;;;;;23.40;12.10;;;;;;;-8.98;87.18;98744.02;109063;1267;22498;-81
2023/02/07 01:55:22;;;;;;;19.20;10.00;;;;;;;-9.02;87.05;98736.59;109029;1267;41148;-81
2023/02/07 01:57:53;;;;;;;19.00;10.30;;;;;;;-9.06;87.27;98747.58;109079;1274;25429;-81
2023/02/07 02:00:25;;;;;;;20.00;11.50;;;;;;;-9.09;87.17;98751.41;109025;1267;24209;-81
2023/02/07 02:02:57;;;;;;;16.90;8.70;;;;;;;-9.12;87.35;98754.56;109022;1273;22624;-81
2023/02/07 02:05:30;;;;;;;21.60;11.40;;;;;;;-9.13;87.17;98757.89;109029;1274;55742;-81
2023/02/07 02:08:01;;;;;;;24.20;12.90;;;;;;;-9.17;87.29;98754.14;109030;1274;22545;-81
2023/02/07 02:11:01;;;;;;;21.50;9.60;;;;;;;-9.16;87.10;98738.71;109073;1267;22732;-81
2023/02/07 02:13:43;;;;;;;16.60;8.50;;;;;;;-9.25;87.10;98745.67;109016;1271;22520;-81
2023/02/07 02:16:22;;;;;;;20.60;11.20;;;;;;;-9.36;86.80;98748.44;109024;1272;31812;-81
2023/02/07 02:19:08;;;;;;;;;;;;;;;-9.45;86.76;98747.83;109042;1272;22600;-81
2023/02/07 02:22:12;;;;;;;15.80;8.40;;;;;;;-9.46;87.11;98736.25;109068;1274;24210;-81
2023/02/07 02:25:21;;;;;;;18.60;10.20;;;;;;;-9.47;87.38;98742.80;109001;1275;32299;-81
2023/02/07 02:28:10;;;;;;;19.70;10.00;;;;;;;-9.51;86.87;98746.67;109071;1274;22545;-81
2023/02/07 02:31:09;;;;;;;16.40;8.60;;;;;;;-9.55;87.03;98756.69;109065;1275;23421;-81
2023/02/07 02:33:55;;;;;;;20.30;11.30;;;;;;;-9.53;87.23;98758.28;109017;1275;22517;-81
2023/02/07 02:36:34;;;;;;;17.80;10.80;;;;;;;-9.47;87.59;98762.99;109076;1269;22627;-81
2023/02/07 02:39:17;;;;;;;18.90;10.30;;;;;;;-9.43;87.64;98754.55;109102;1274;22472;-82
2023/02/07 02:42:00;;;;;;;19.90;10.40;;;;;;;-9.44;87.49;98768.25;109055;1273;22806;-81
2023/02/07 02:44:44;;;;;;;16.90;9.30;;;;;;;-9.43;87.56;98768.25;107644;1268;1855772;-81
2023/02/07 02:47:17;;;;;;;17.50;10.10;;;;;;;-9.42;87.88;98773.64;109107;1275;23220;-81
2023/02/07 02:49:50;;;;;;;20.20;10.20;;;;;;;-9.40;87.79;98776.91;109111;1251;22566;-81
2023/02/07 02:52:23;;;;;;;17.70;10.40;;;;;;;-9.50;87.25;98778.42;109111;1269;24244;-81
2023/02/07 02:54:54;;;;;;;22.90;12.50;;;;;;;-9.69;87.02;98781.91;109047;1267;47151;-81
2023/02/07 02:57:53;;;;;;;21.00;10.90;;;;;;;-9.70;87.28;98780.58;109089;1267;25429;-81
2023/02/07 03:00:50;;;;;;;14.50;7.50;;;;;;;-9.80;87.11;98780.52;109019;1275;23190;-81
2023/02/07 03:04:01;;;;;;;22.30;11.50;;;;;;;-9.92;87.15;98788.52;109048;1267;23924;-81
2023/02/07 03:06:49;;;;;;;21.40;11.90;;;;;;;-9.89;87.61;98790.34;109091;1275;22539;-80
2023/02/07 03:09:35;;;;;;;23.40;13.40;;;;;;;-9.75;87.76;98777.66;109026;1275;22579;-81
2023/02/07 03:12:24;;;;;;;26.80;15.30;;;;;;;-9.67;87.50;98783.09;109104;1252;22517;-81
2023/02/07 03:15:03;;;;;;;26.50;14.30;;;;;;;-9.60;87.78;98788.14;107557;1269;2002099;-81
2023/02/07 03:17:52;;;;;;;23.40;13.20;;;;;;;-9.53;87.72;98782.90;109053;1269;22576;-81
2023/02/07 03:20:29;;;;;;;25.70;13.50;;;;;;;-9.46;87.83;98787.09;109087;1272;25057;-81
2023/02/07 03:23:02;;;;;;;24.70;13.70;;;;;;;-9.44;87.70;98782.68;109081;1274;22572;-81
2023/02/07 03:25:34;;;;;;;24.30;13.60;;;;;;;-9.39;87.74;98786.45;108983;1267;105099;-81
2023/02/07 03:28:09;;;;;;;24.10;12.60;;;;;;;-9.32;87.73;98795.22;109084;1269;22525;-81
2023/02/07 03:30:48;;;;;;;27.30;14.10;;;;;;;-9.27;87.73;98788.05;109076;1271;22534;-82
2023/02/07 03:33:23;;;;;;;24.60;13.20;;;;;;;-9.22;87.91;98788.91;109034;1275;22525;-81
2023/02/07 03:36:00;;;;;;;24.10;13.40;;;;;;;-9.16;88.12;98786.16;109003;1271;39800;-82
2023/02/07 03:38:36;;;;;;;;;;;;;;;-9.10;88.18;98791.01;109078;1275;22510;-81
2023/02/07 03:41:25;;;;;;;23.10;11.60;;;;;;;-9.03;88.39;98786.81;109010;1268;23232;-82
2023/02/07 03:44:05;;;;;;;24.80;12.30;;;;;;;-8.96;88.10;98795.12;108956;1271;22551;-81
2023/02/07 03:46:44;;;;;;;23.80;13.00;;;;;;;-8.91;88.22;98797.88;109003;1275;22533;-81
2023/02/07 03:49:16;;;;;;;25.00;13.00;;;;;;;-8.87;88.16;98794.98;109032;1275;24223;-81
2023/02/07 03:51:49;;;;;;;23.60;11.60;;;;;;;-8.85;88.19;98789.76;108995;1275;22647;-81
2023/02/07 03:54:22;;;;;;;23.10;12.10;;;;;;;-8.85;88.08;98788.17;108965;1268;31171;-81
2023/02/07 03:56:55;;;;;;;19.20;11.00;;;;;;;-8.84;87.99;98780.77;109078;1275;22536;-81
2023/02/07 03:59:37;;;;;;;22.70;12.20;;;;;;;-8.85;87.97;98779.15;109075;1274;22548;-81
2023/02/07 04:02:11;;;;;;;20.70;9.90;;;;;;;-8.86;87.61;98782.77;109067;1268;24421;-81
2023/02/07 04:04:47;;;;;;;18.10;10.00;;;;;;;-8.88;87.43;98783.24;109004;1275;54001;-82
2023/02/07 04:07:19;;;;;;;22.70;12.10;;;;;;;-8.95;87.31;98784.21;109040;1274;24244;-81
2023/02/07 04:09:53;;;;;;;23.70;12.80;;;;;;;-9.05;86.82;98785.59;109021;1271;23850;-81
2023/02/07 04:12:31;;;;;;;25.50;12.90;;;;;;;-9.19;86.57;98791.84;109000;1253;22638;-81
2023/02/07 04:15:07;;;;;;;25.10;13.70;;;;;;;-9.34;86.47;98787.52;108968;1271;58273;-81
2023/02/07 04:17:40;;;;;;;28.50;14.20;;;;;;;-9.38;86.64;98786.08;108967;1275;22978;-81
2023/02/07 04:20:12;;;;;;;21.60;10.30;;;;;;;-9.34;87.16;98787.29;109010;1274;22509;-81
2023/02/07 04:22:45;;;;;;;14.30;8.00;;;;;;;-9.29;87.43;98789.55;108996;1275;22524;-81
2023/02/07 04:25:17;;;;;;;19.60;11.10;;;;;;;-9.21;87.34;98793.85;108997;1274;39656;-81
2023/02/07 04:27:48;;;;;;;20.00;9.60;;;;;;;-9.12;87.89;98790.70;109086;1274;24079;-81
2023/02/07 04:30:22;;;;;;;22.30;11.80;;;;;;;-9.07;87.50;98787.20;109019;1275;22547;-81
2023/02/07 04:32:53;;;;;;;18.20;10.40;;;;;;;-8.98;87.40;98787.32;109029;1274;22530;-81
2023/02/07 04:35:24;;;;;;;20.10;10.80;;;;;;;-8.88;87.79;98788.55;109031;1269;57560;-81
2023/02/07 04:37:57;;;;;;;16.60;9.50;;;;;;;-8.79;87.94;98788.98;109016;1275;22533;-81
2023/02/07 04:40:29;;;;;;;21.50;11.70;;;;;;;-8.74;87.66;98791.38;108970;1252;22527;-81
2023/02/07 04:43:00;;;;;;;20.40;10.40;;;;;;;-8.70;87.88;98793.34;109027;1275;22577;-81
2023/02/07 04:45:31;;;;;;;19.60;11.30;;;;;;;-8.64;87.61;98798.30;109018;1269;27004;-81
2023/02/07 04:48:04;;;;;;;18.90;10.90;;;;;;;-8.59;87.60;98794.45;109007;1274;22535;-81
2023/02/07 04:50:36;;;;;;;20.70;10.50;;;;;;;-8.52;87.98;98797.08;109035;1275;22616;-81
2023/02/07 04:53:07;;;;;;;20.20;9.80;;;;;;;-8.49;87.85;98795.81;109011;1274;22524;-81
2023/02/07 04:55:38;;;;;;;21.80;12.20;;;;;;;-8.49;87.74;98796.00;108997;1275;42272;-81
2023/02/07 04:58:11;;;;;;;21.30;11.90;;;;;;;-8.49;87.76;98792.58;109056;1274;22686;-81
2023/02/07 05:00:44;;;;;;;24.20;14.10;;;;;;;-8.49;87.46;98794.10;109037;1275;23835;-81
2023/02/07 05:03:20;;;;;;;24.20;12.80;;;;;;;-8.51;87.30;98784.01;109063;1275;22548;-81
2023/02/07 05:05:55;;;;;;;23.60;11.10;;;;;;;-8.55;87.04;98775.34;108996;1270;35739;-81
2023/02/07 05:08:28;;;;;;;32.90;16.50;;;;;;;-8.60;87.23;98777.88;109007;1275;22588;-81
2023/02/07 05:11:00;;;;;;;25.90;14.30;;;;;;;-8.67;86.89;98785.05;108996;1275;22566;-81
2023/02/07 05:13:33;;;;;;;30.10;14.60;;;;;;;-8.69;86.88;98791.02;109050;1272;25424;-81
2023/02/07 05:16:08;;;;;;;25.70;14.30;;;;;;;-8.69;86.96;98795.82;109036;1268;47526;-81
2023/02/07 05:18:39;;;;;;;24.40;13.70;;;;;;;-8.68;86.92;98799.38;109037;1274;23453;-81
2023/02/07 05:21:11;;;;;;;27.30;13.70;;;;;;;-8.66;87.36;98797.56;109049;1271;22563;-82
2023/02/07 05:23:49;;;;;;;27.00;14.60;;;;;;;-8.63;87.50;98800.09;109028;1267;25303;-81
2023/02/07 05:26:21;;;;;;;20.30;11.60;;;;;;;-8.60;87.29;98799.87;109037;1271;40009;-81
2023/02/07 05:28:52;;;;;;;24.60;13.50;;;;;;;-8.59;87.43;98799.30;109015;1275;22517;-82
2023/02/07 05:33:02;;;;;;;23.50;12.80;;;;;;;-8.57;87.30;98804.64;109041;1275;22546;-81
2023/02/07 05:34:20;;;;;;;21.40;12.30;;;;;;;-8.57;87.36;98800.85;108960;1275;49782;-81
2023/02/07 05:36:51;;;;;;;22.10;13.10;;;;;;;-8.56;87.39;98802.85;109030;1271;22723;-81
2023/02/07 05:39:22;;;;;;;26.00;12.90;;;;;;;-8.57;87.25;98797.79;108979;1275;22827;-81
2023/02/07 05:41:53;;;;;;;23.80;12.90;;;;;;;-8.57;87.22;98794.21;109050;1274;22660;-81
2023/02/07 05:44:26;;;;;;;30.70;16.80;;;;;;;-8.60;87.06;98791.63;108943;1269;107991;-81
2023/02/07 05:46:57;;;;;;;30.60;15.70;;;;;;;-8.67;86.88;98786.80;109043;1274;22821;-81
2023/02/07 05:49:28;;;;;;;30.70;15.60;;;;;;;-8.71;86.35;98795.33;109048;1274;23245;-81
2023/02/07 05:51:59;;;;;;;25.20;13.40;;;;;;;-8.78;86.41;98798.66;109044;1275;25505;-81
2023/02/07 05:54:33;;;;;;;26.10;14.50;;;;;;;-8.83;86.45;98794.02;108933;1271;64493;-81
2023/02/07 05:57:04;;;;;;;27.80;14.60;;;;;;;-8.85;86.57;98800.90;109032;1274;22524;-81
2023/02/07 05:59:35;;;;;;;23.10;14.10;;;;;;;-8.85;86.40;98804.98;108976;1275;23768;-81
2023/02/07 06:02:08;;;;;;;28.50;13.90;;;;;;;-8.84;86.66;98803.92;108998;1275;22519;-81
2023/02/07 06:04:42;;;;;;;26.80;14.10;;;;;;;-8.85;86.49;98803.29;108948;1269;56313;-81
2023/02/07 06:07:13;;;;;;;22.10;11.70;;;;;;;-8.86;86.57;98800.29;108994;1254;22524;-81
2023/02/07 06:09:44;;;;;;;24.10;12.90;;;;;;;-8.83;86.50;98800.61;109008;1268;22575;-81
2023/02/07 06:12:15;;;;;;;22.90;11.00;;;;;;;-8.82;86.63;98803.76;109021;1272;22503;-81
2023/02/07 06:14:46;;;;;;;22.70;11.40;;;;;;;-8.82;86.54;98810.97;109019;1275;32411;-81
2023/02/07 06:17:18;;;;;;;23.40;12.20;;;;;;;-8.82;86.46;98814.58;109019;1272;25233;-81
2023/02/07 06:19:49;;;;;;;19.90;9.60;;;;;;;-8.84;86.37;98817.09;109022;1275;24003;-81
2023/02/07 06:22:20;;;;;;;21.70;11.30;;;;;;;-8.86;86.45;98826.48;108962;1275;23750;-81
2023/02/07 06:24:51;;;;;;;20.50;10.90;;;;;;;-8.86;86.52;98827.64;107623;1270;1813014;-81
2023/02/07 06:27:24;;;;;;;17.40;9.70;;;;;;;-8.82;86.46;98822.59;109013;1269;22528;-82
2023/02/07 06:29:55;;;;;;;21.70;10.50;;;;;;;-8.79;86.60;98825.11;109044;1274;24210;-81
2023/02/07 06:32:26;;;;;;;15.20;8.30;;;;;;;-8.75;86.24;98830.48;109011;1268;23924;-81
2023/02/07 06:34:57;;;;;;;18.70;10.50;;;;;;;-8.69;86.57;98830.67;108999;1275;40376;-82
2023/02/07 06:37:31;;;;;;;19.50;11.30;;;;;;;-8.59;86.62;98836.48;108997;1270;22604;-81
2023/02/07 06:40:03;;;;;;;16.30;8.40;;;;;;;-8.52;86.68;98839.79;109019;1275;24181;-81
2023/02/07 06:42:34;;;;;;;17.30;9.20;;;;;;;-8.49;86.53;98834.92;109066;1271;22562;-82
2023/02/07 06:45:07;;;;;;;19.50;9.50;;;;;;;-8.46;86.47;98835.24;108932;1275;47477;-81
2023/02/07 06:47:39;;;;;;;21.60;10.50;;;;;;;-8.41;86.60;98837.13;109029;1268;25447;-81
2023/02/07 06:50:13;;;;;;;19.50;10.30;;;;;;;-8.37;86.56;98826.23;109016;1274;22525;-82
2023/02/07 06:52:48;;;;;;;18.40;9.40;;;;;;;-8.36;86.29;98825.98;109007;1274;23810;-82
2023/02/07 06:55:21;;;;;;;21.70;10.60;;;;;;;-8.32;86.34;98829.48;108961;1271;52818;-82
2023/02/07 06:57:56;;;;;;;20.30;10.40;;;;;;;-8.27;86.32;98826.38;108994;1274;25316;-81
2023/02/07 07:00:28;;;;;;;18.50;10.90;;;;;;;-8.22;86.48;98825.19;109031;1271;22525;-81
2023/02/07 07:03:01;;;;;;;20.60;11.30;;;;;;;-8.21;86.28;98816.31;108936;1263;24988;-82
2023/02/07 07:05:33;;;;;;;21.50;12.70;;;;;;;-8.20;86.11;98822.46;108948;1268;54702;-81
2023/02/07 07:08:05;;;;;;;20.90;12.20;;;;;;;-8.18;86.01;98819.92;109001;1270;23869;-81
2023/02/07 07:10:37;;;;;;;22.70;11.20;;;;;;;-8.18;85.76;98818.69;109001;1275;24229;-81
2023/02/07 07:13:10;;;;;;;21.70;12.00;;;;;;;-8.19;85.75;98822.00;109010;1274;23022;-81
2023/02/07 07:15:41;;;;;;;20.90;11.60;;;;;;;-8.19;85.58;98821.48;108979;1271;56764;-81
2023/02/07 07:18:12;;;;;;;19.80;11.10;;;;;;;-8.19;85.77;98819.97;109059;1275;22555;-82
2023/02/07 07:20:47;;;;;;;21.10;12.40;;;;;;;-8.20;85.66;98827.93;108978;1275;22517;-82
2023/02/07 07:23:18;;;;;;;24.00;11.70;;;;;;;-8.17;85.85;98832.33;109023;1275;24190;-82
2023/02/07 07:25:49;;;;;;;25.50;12.40;;;;;;;-8.10;86.00;98833.92;108967;1275;56948;-82
2023/02/07 07:28:20;;;;;;;22.30;13.30;;;;;;;-8.01;86.31;98828.20;109007;1275;22626;-82
2023/02/07 07:30:51;;;;;;;31.60;14.80;;;;;;;-7.94;86.27;98822.70;109042;1271;22489;-82
2023/02/07 07:33:23;;;;;;;22.90;12.30;;;;;;;-7.86;86.63;98827.08;109002;1275;22508;-82
2023/02/07 07:36:01;;;;;;;26.30;13.60;;;;;;;-7.75;86.67;98831.63;108966;1268;75380;-82
2023/02/07 07:38:33;;;;;;;23.90;12.10;;;;;;;-7.63;87.15;98831.30;109049;1271;22475;-82
2023/02/07 07:41:04;;;;;;;22.60;13.00;;;;;;;-7.59;86.95;98832.08;108958;1270;22553;-82
2023/02/07 07:43:39;;;;;;;26.70;14.80;;;;;;;-7.57;86.70;98832.59;109006;1275;23810;-85
2023/02/07 07:46:13;;;;;;;21.60;12.40;;;;;;;-7.53;86.67;98827.48;108987;1270;55664;-82
2023/02/07 07:48:46;;;;;;;23.20;12.10;;;;;;;-7.47;86.61;98827.25;109059;1272;22514;-82
2023/02/07 07:51:17;;;;;;;21.30;12.00;;;;;;;-7.40;86.69;98828.82;109014;1270;22537;-82
2023/02/07 07:53:51;;;;;;;21.60;11.80;;;;;;;-7.33;86.57;98832.05;108996;1274;23858;-82
2023/02/07 07:56:28;;;;;;;27.70;14.60;;;;;;;-7.27;86.28;98836.44;108985;1275;41425;-82
2023/02/07 07:59:02;;;;;;;26.00;14.20;;;;;;;-7.25;86.23;98829.23;109033;1271;22520;-82
2023/02/07 08:01:34;;;;;;;27.70;14.90;;;;;;;-7.26;86.00;98824.02;109044;1275;23752;-82
2023/02/07 08:04:07;;;;;;;20.10;10.80;;;;;;;-7.31;85.53;98825.70;108992;1275;22549;-82
2023/02/07 08:06:41;;;;;;;19.80;11.20;;;;;;;-7.32;85.44;98824.06;108945;1275;56793;-83
2023/02/07 08:09:15;;;;;;;25.20;14.60;;;;;;;-7.33;85.51;98817.82;108996;1275;22566;-82
2023/02/07 08:11:50;;;;;;;26.30;14.30;;;;;;;-7.37;85.33;98819.45;109017;1274;24156;-82
2023/02/07 08:14:25;;;;;;;29.20;16.90;;;;;;;-7.40;85.30;98814.88;108958;1273;33153;-82
2023/02/07 08:16:56;;;;;;;26.70;13.90;;;;;;;-7.43;85.03;98811.02;109053;1269;25247;-82
2023/02/07 08:19:37;;;;;;;29.80;15.70;;;;;;;-7.45;85.24;98816.98;109035;1275;22530;-82
2023/02/07 08:22:08;;;;;;;26.20;13.90;;;;;;;-7.44;85.30;98806.27;108961;1274;22533;-82
2023/02/07 08:24:40;;;;;;;26.20;15.20;;;;;;;-7.43;85.38;98810.48;107662;1274;1823166;-82
2023/02/07 08:27:14;;;;;;;25.80;14.90;;;;;;;-7.41;85.52;98812.58;109063;1271;22523;-82
2023/02/07 08:29:46;;;;;;;23.80;13.10;;;;;;;-7.38;85.68;98805.82;109010;1275;23733;-82
2023/02/07 08:32:17;;;;;;;22.50;13.30;;;;;;;-7.34;85.89;98807.39;109030;1275;23287;-82
2023/02/07 08:34:49;;;;;;;24.00;13.00;;;;;;;-7.31;86.00;98804.11;108966;1274;63171;-82
2023/02/07 08:37:21;;;;;;;23.30;12.20;;;;;;;-7.29;85.95;98794.34;108994;1271;22534;-82
2023/02/07 08:39:55;;;;;;;21.40;12.60;;;;;;;-7.27;85.68;98790.90;109026;1275;22562;-82
2023/02/07 08:42:27;;;;;;;18.50;10.10;;;;;;;-7.25;85.59;98789.56;109022;1272;22606;-82
2023/02/07 08:45:01;;;;;;;21.50;11.50;;;;;;;-7.26;85.04;98792.35;108972;1275;46411;-82
2023/02/07 08:47:32;;;;;;;21.20;10.70;;;;;;;-7.29;84.49;98797.28;109019;1268;22984;-82
2023/02/07 08:50:06;;;;;;;21.20;11.80;;;;;;;-7.36;84.75;98796.73;108996;1275;22694;-81
2023/02/07 08:52:38;;;;;;;27.30;14.90;;;;;;;-7.37;84.71;98800.04;109011;1269;22524;-82
2023/02/07 08:55:10;;;;;;;25.70;14.00;;;;;;;-7.37;84.76;98805.26;108974;1271;53398;-82
2023/02/07 08:57:42;;;;;;;23.20;14.50;;;;;;;-7.40;84.85;98807.15;108982;1271;22531;-81
2023/02/07 09:00:16;;;;;;;18.30;11.00;;;;;;;-7.34;84.76;98798.81;109040;1270;22694;-82
2023/02/07 09:02:48;;;;;;;28.30;14.70;;;;;;;-7.31;84.60;98798.91;109001;1275;22859;-82
2023/02/07 09:05:21;;;;;;;24.00;13.60;;;;;;;-7.23;84.82;98796.42;108944;1269;54196;-82
2023/02/07 09:07:53;;;;;;;27.20;16.30;;;;;;;-7.10;84.89;98793.27;109007;1275;25354;-82
2023/02/07 09:10:29;;;;;;;26.00;15.80;;;;;;;-6.98;84.94;98807.54;108999;1272;23818;-82
2023/02/07 09:13:03;;;;;;;26.50;14.10;;;;;;;-6.94;84.73;98806.81;108993;1275;22539;-82
2023/02/07 09:15:36;;;;;;;23.10;13.20;;;;;;;-6.95;84.66;98808.64;109009;1275;42063;-82
2023/02/07 09:18:07;;;;;;;43.80;27.90;;;;;;;-7.01;84.24;98808.45;109036;1272;22643;-82
2023/02/07 09:20:39;;;;;;;31.10;18.60;;;;;;;-7.09;84.47;98813.95;109037;1275;22520;-82
2023/02/07 09:23:20;;;;;;;26.00;16.30;;;;;;;-7.09;84.81;98809.71;108980;1275;25317;-82
2023/02/07 09:25:51;;;;;;;;;;;;;;;-7.14;84.41;98811.12;108984;1275;48144;-82
2023/02/07 09:28:25;;;;;;;28.10;15.80;;;;;;;-7.14;84.65;98808.73;108992;1274;22664;-82
2023/02/07 09:30:57;;;;;;;29.40;15.80;;;;;;;-7.14;84.63;98802.52;109035;1275;22575;-82
2023/02/07 09:33:28;;;;;;;25.10;14.70;;;;;;;-7.14;84.98;98795.80;109061;1275;26091;-82
2023/02/07 09:35:59;;;;;;;30.60;16.30;;;;;;;-7.10;85.84;98795.18;107518;1275;2047156;-82
2023/02/07 09:38:31;;;;;;;30.50;17.40;;;;;;;-7.07;86.26;98794.77;109020;1275;24228;-81
2023/02/07 09:41:16;;;;;;;30.00;15.90;;;;;;;-7.02;86.25;98792.02;109006;1263;22555;-80
2023/02/07 09:43:59;;;;;;;25.20;14.50;;;;;;;-6.96;86.05;98790.20;108941;1275;22527;-80
2023/02/07 09:46:35;;;;;;;25.80;14.30;;;;;;;-6.92;85.86;98785.55;108930;1275;28635;-80
2023/02/07 09:49:20;;;;;;;27.00;14.00;;;;;;;-6.91;85.66;98779.61;109016;1275;23758;-80
2023/02/07 09:51:53;;;;;;;29.60;15.60;;;;;;;-6.90;85.39;98779.52;109019;1272;23945;-81
2023/02/07 09:54:29;;;;;;;31.20;19.20;;;;;;;-6.87;85.71;98775.41;108954;1270;46460;-81
2023/02/07 09:57:06;;;;;;;30.20;16.80;;;;;;;-6.85;85.68;98777.80;109059;1275;25462;-81
2023/02/07 09:59:46;;;;;;;34.40;17.70;;;;;;;-6.82;85.33;98776.04;108993;1275;25265;-81
2023/02/07 10:02:22;;;;;;;27.00;17.50;;;;;;;-6.81;85.41;98774.94;108989;1275;22558;-81
2023/02/07 10:04:58;;;;;;;28.60;15.40;;;;;;;-6.81;85.45;98776.30;109405;1275;47955;-81
2023/02/07 10:07:29;;;;;;;29.20;15.70;;;;;;;-6.81;85.61;98775.27;109023;1272;25280;-81
2023/02/07 10:10:00;;;;;;;28.60;15.80;;;;;;;-6.78;85.57;98781.76;109043;1274;23469;-81
2023/02/07 10:12:51;;;;;;;27.60;14.50;;;;;;;-6.77;85.82;98778.92;109008;1269;23053;-81
2023/02/07 10:15:47;;;;;;;25.10;15.20;;;;;;;-6.78;85.35;98779.53;108975;1269;40972;-81
2023/02/07 10:18:34;;;;;;;28.90;15.00;;;;;;;-6.80;85.48;98781.02;109001;1273;22526;-81
2023/02/07 10:21:19;;;;;;;32.00;16.00;;;;;;;-6.79;85.70;98778.41;109003;1275;22666;-81
2023/02/07 10:24:10;;;;;;;26.50;15.00;;;;;;;-6.82;85.46;98769.52;109027;1273;22846;-81
2023/02/07 10:26:47;;;;;;;26.00;15.80;;;;;;;-6.84;85.84;98778.45;108953;1270;69935;-81
2023/02/07 10:29:36;;;;;;;23.60;14.50;;;;;;;-6.83;86.18;98782.30;109025;1272;22556;-81
2023/02/07 10:32:11;;;;;;;;;;;;;;;-6.83;86.21;98782.48;109054;1268;22499;-81
2023/02/07 10:34:45;;;;;;;28.10;15.00;;;;;;;-6.82;86.11;98783.83;109048;1272;47242;-81
2023/02/07 10:37:20;;;;;;;34.70;19.30;;;;;;;-6.81;86.39;98783.58;109015;1271;23911;-81
2023/02/07 10:40:00;;;;;;;28.20;14.80;;;;;;;-6.84;86.58;98777.42;109039;1274;25250;-81
2023/02/07 10:42:34;;;;;;;26.70;14.80;;;;;;;-6.83;86.76;98782.84;109040;1275;22556;-81
2023/02/07 10:45:06;;;;;;;23.60;13.00;;;;;;;-6.78;86.64;98781.92;109262;1272;106512;-81
2023/02/07 10:47:43;;;;;;;24.90;13.70;;;;;;;-6.77;86.90;98780.49;109014;1267;22530;-81
2023/02/07 10:50:21;;;;;;;27.00;14.80;;;;;;;-6.74;87.11;98788.14;108997;1275;22523;-81
2023/02/07 10:52:55;;;;;;;29.60;16.30;;;;;;;-6.71;87.13;98787.76;109010;1267;22528;-81
2023/02/07 10:55:45;;;;;;;34.70;17.20;;;;;;;-6.65;87.25;98781.61;108953;1275;81173;-81
2023/02/07 10:58:22;;;;;;;33.40;18.60;;;;;;;-6.58;87.22;98783.70;109043;1270;25177;-81
2023/02/07 11:00:58;;;;;;;27.50;17.10;;;;;;;-6.52;87.36;98787.33;109004;1275;22620;-81
2023/02/07 11:03:29;;;;;;;34.10;17.80;;;;;;;-6.44;87.94;98781.09;109028;1275;23009;-82
2023/02/07 11:06:06;;;;;;;32.10;18.80;;;;;;;-6.34;88.23;98781.13;108954;1272;42265;-81
2023/02/07 11:08:39;;;;;;;29.70;18.30;;;;;;;-6.27;88.46;98776.45;109051;1275;24270;-81
2023/02/07 11:11:35;;;;;;;33.10;19.40;;;;;;;-6.22;88.48;98775.90;109024;1272;24267;-81
2023/02/07 11:14:09;;;;;;;30.30;16.90;;;;;;;-6.21;88.10;98771.20;109007;1274;25427;-81
2023/02/07 11:16:45;;;;;;;34.80;20.30;;;;;;;-6.22;87.79;98765.41;108903;1275;63965;-81
2023/02/07 11:19:21;;;;;;;38.30;21.40;;;;;;;-6.25;87.77;98770.33;109001;1275;22527;-81
2023/02/07 11:21:57;;;;;;;37.10;21.40;;;;;;;-6.26;87.72;98765.08;109014;1275;22535;-81
2023/02/07 11:24:31;;;;;;;38.90;22.60;;;;;;;-6.28;87.51;98761.95;107496;1274;2041175;-81
2023/02/07 11:27:14;;;;;;;38.70;22.30;;;;;;;-6.31;87.57;98762.30;109042;1275;22536;-81
2023/02/07 11:29:52;;;;;;;41.10;22.10;;;;;;;-6.28;87.59;98762.98;109023;1275;24936;-82
2023/02/07 11:32:27;;;;;;;41.40;22.70;;;;;;;-6.27;87.41;98763.27;109053;1273;22542;-81
2023/02/07 11:35:04;;;;;;;39.40;23.10;;;;;;;-6.25;87.60;98757.02;108998;1270;43573;-82
2023/02/07 11:37:36;;;;;;;41.10;22.00;;;;;;;-6.20;87.59;98758.89;108990;1275;22529;-82
2023/02/07 11:40:27;;;;;;;36.90;20.30;;;;;;;-6.15;87.43;98757.32;109003;1275;22533;-82
2023/02/07 11:43:04;;;;;;;34.00;18.00;;;;;;;-6.09;87.70;98754.91;109040;1273;22546;-82
2023/02/07 11:45:39;;;;;;;33.00;18.90;;;;;;;-5.98;87.86;98749.91;108995;1275;54253;-82
2023/02/07 11:48:19;;;;;;;31.70;17.00;;;;;;;-5.87;87.89;98745.06;109053;1275;22918;-82
2023/02/07 11:50:59;;;;;;;24.70;13.00;;;;;;;-5.80;87.87;98738.26;109014;1275;23213;-82